sensor_id;sensor_type;location;lat;lon;timestamp;temperature;humidity
15749;DHT22;7976;52.526;13.326;2023-04-10T00:01:39;8.70;99.90
15749;DHT22;7976;52.526;13.326;2023-04-10T00:04:06;8.60;99.90
15749;DHT22;7976;52.526;13.326;2023-04-10T00:06:33;8.60;99.90
15749;DHT22;7976;52.526;13.326;2023-04-10T00:09:00;8.60;99.90
15749;DHT22;7976;52.526;13.326;2023-04-10T00:11:28;8.60;99.90
15749;DHT22;7976;52.526;13.326;2023-04-10T00:13:55;8.60;99.90
15749;DHT22;7976;52.526;13.326;2023-04-10T00:16:22;8.60;99.90
15749;DHT22;7976;52.526;13.326;2023-04-10T00:18:48;8.60;99.90
15749;DHT22;7976;52.526;13.326;2023-04-10T00:21:15;8.50;99.90
15749;DHT22;7976;52.526;13.326;2023-04-10T00:23:42;8.60;99.90
15749;DHT22;7976;52.526;13.326;2023-04-10T00:26:09;8.50;99.90
15749;DHT22;7976;52.526;13.326;2023-04-10T00:28:38;8.50;99.90
15749;DHT22;7976;52.526;13.326;2023-04-10T00:31:05;8.50;99.90
15749;DHT22;7976;52.526;13.326;2023-04-10T00:33:32;8.50;99.90
15749;DHT22;7976;52.526;13.326;2023-04-10T00:35:59;8.50;99.90
15749;DHT22;7976;52.526;13.326;2023-04-10T00:38:26;8.50;99.90
15749;DHT22;7976;52.526;13.326;2023-04-10T00:40:53;8.50;99.90
15749;DHT22;7976;52.526;13.326;2023-04-10T00:43:21;8.50;99.90
15749;DHT22;7976;52.526;13.326;2023-04-10T00:45:50;8.40;99.90
15749;DHT22;7976;52.526;13.326;2023-04-10T00:48:16;8.40;99.90
15749;DHT22;7976;52.526;13.326;2023-04-10T00:50:45;8.40;99.90
15749;DHT22;7976;52.526;13.326;2023-04-10T00:53:12;8.40;99.90
15749;DHT22;7976;52.526;13.326;2023-04-10T00:55:39;8.30;99.90
15749;DHT22;7976;52.526;13.326;2023-04-10T00:58:06;8.30;99.90
15749;DHT22;7976;52.526;13.326;2023-04-10T01:00:37;8.30;99.90
15749;DHT22;7976;52.526;13.326;2023-04-10T01:03:06;8.30;99.90
15749;DHT22;7976;52.526;13.326;2023-04-10T01:05:38;8.30;99.90
15749;DHT22;7976;52.526;13.326;2023-04-10T01:08:15;8.30;99.90
15749;DHT22;7976;52.526;13.326;2023-04-10T01:11:08;8.30;99.90
15749;DHT22;7976;52.526;13.326;2023-04-10T01:13:44;8.30;99.90
15749;DHT22;7976;52.526;13.326;2023-04-10T01:16:24;8.30;99.90
15749;DHT22;7976;52.526;13.326;2023-04-10T01:18:57;8.40;99.90
15749;DHT22;7976;52.526;13.326;2023-04-10T01:21:33;8.40;99.90
15749;DHT22;7976;52.526;13.326;2023-04-10T01:24:23;8.30;99.90
15749;DHT22;7976;52.526;13.326;2023-04-10T01:27:09;8.30;99.90
15749;DHT22;7976;52.526;13.326;2023-04-10T01:29:44;8.30;99.90
15749;DHT22;7976;52.526;13.326;2023-04-10T01:32:16;8.30;99.90
15749;DHT22;7976;52.526;13.326;2023-04-10T01:34:50;8.30;99.90
15749;DHT22;7976;52.526;13.326;2023-04-10T01:37:20;8.30;99.90
15749;DHT22;7976;52.526;13.326;2023-04-10T01:39:56;8.30;99.90
15749;DHT22;7976;52.526;13.326;2023-04-10T01:42:27;8.30;99.90
15749;DHT22;7976;52.526;13.326;2023-04-10T01:44:58;8.30;99.90
15749;DHT22;7976;52.526;13.326;2023-04-10T01:47:27;8.30;99.90
15749;DHT22;7976;52.526;13.326;2023-04-10T01:49:55;8.30;99.90
15749;DHT22;7976;52.526;13.326;2023-04-10T01:52:23;8.30;99.90
15749;DHT22;7976;52.526;13.326;2023-04-10T01:55:03;8.30;99.90
15749;DHT22;7976;52.526;13.326;2023-04-10T01:57:42;8.30;99.90
15749;DHT22;7976;52.526;13.326;2023-04-10T02:00:12;8.30;99.90
15749;DHT22;7976;52.526;13.326;2023-04-10T02:02:42;8.20;99.90
15749;DHT22;7976;52.526;13.326;2023-04-10T02:05:09;8.20;99.90
15749;DHT22;7976;52.526;13.326;2023-04-10T02:07:43;8.20;99.90
15749;DHT22;7976;52.526;13.326;2023-04-10T02:10:18;8.20;99.90
15749;DHT22;7976;52.526;13.326;2023-04-10T02:12:51;8.20;99.90
15749;DHT22;7976;52.526;13.326;2023-04-10T02:15:25;8.20;99.90
15749;DHT22;7976;52.526;13.326;2023-04-10T02:17:54;8.10;99.90
15749;DHT22;7976;52.526;13.326;2023-04-10T02:20:23;8.10;99.90
15749;DHT22;7976;52.526;13.326;2023-04-10T02:22:51;8.10;99.90
15749;DHT22;7976;52.526;13.326;2023-04-10T02:25:20;8.10;99.90
15749;DHT22;7976;52.526;13.326;2023-04-10T02:27:47;8.10;99.90
15749;DHT22;7976;52.526;13.326;2023-04-10T02:30:14;8.10;99.90
15749;DHT22;7976;52.526;13.326;2023-04-10T02:32:43;8.10;99.90
15749;DHT22;7976;52.526;13.326;2023-04-10T02:35:10;8.10;99.90
15749;DHT22;7976;52.526;13.326;2023-04-10T02:37:37;8.00;99.90
15749;DHT22;7976;52.526;13.326;2023-04-10T02:40:06;8.00;99.90
15749;DHT22;7976;52.526;13.326;2023-04-10T02:42:48;8.00;99.90
15749;DHT22;7976;52.526;13.326;2023-04-10T02:45:15;8.00;99.90
15749;DHT22;7976;52.526;13.326;2023-04-10T02:47:44;8.00;99.90
15749;DHT22;7976;52.526;13.326;2023-04-10T02:50:11;8.00;99.90
15749;DHT22;7976;52.526;13.326;2023-04-10T02:52:41;8.00;99.90
15749;DHT22;7976;52.526;13.326;2023-04-10T02:55:09;8.00;99.90
15749;DHT22;7976;52.526;13.326;2023-04-10T02:57:37;7.90;99.90
15749;DHT22;7976;52.526;13.326;2023-04-10T03:00:05;7.90;99.90
15749;DHT22;7976;52.526;13.326;2023-04-10T03:03:06;7.90;99.90
15749;DHT22;7976;52.526;13.326;2023-04-10T03:05:42;7.90;99.90
15749;DHT22;7976;52.526;13.326;2023-04-10T03:08:11;7.90;99.90
15749;DHT22;7976;52.526;13.326;2023-04-10T03:10:38;7.90;99.90
15749;DHT22;7976;52.526;13.326;2023-04-10T03:13:07;7.90;99.90
15749;DHT22;7976;52.526;13.326;2023-04-10T03:15:34;7.90;99.90
15749;DHT22;7976;52.526;13.326;2023-04-10T03:18:00;7.90;99.90
15749;DHT22;7976;52.526;13.326;2023-04-10T03:20:29;7.90;99.90
15749;DHT22;7976;52.526;13.326;2023-04-10T03:22:56;7.90;99.90
15749;DHT22;7976;52.526;13.326;2023-04-10T03:25:24;7.90;99.90
15749;DHT22;7976;52.526;13.326;2023-04-10T03:27:51;7.90;99.90
15749;DHT22;7976;52.526;13.326;2023-04-10T03:30:19;7.80;99.90
15749;DHT22;7976;52.526;13.326;2023-04-10T03:32:47;7.80;99.90
15749;DHT22;7976;52.526;13.326;2023-04-10T03:35:14;7.80;99.90
15749;DHT22;7976;52.526;13.326;2023-04-10T03:37:42;7.80;99.90
15749;DHT22;7976;52.526;13.326;2023-04-10T03:40:09;7.80;99.90
15749;DHT22;7976;52.526;13.326;2023-04-10T03:42:37;7.80;99.90
15749;DHT22;7976;52.526;13.326;2023-04-10T03:45:05;7.80;99.90
15749;DHT22;7976;52.526;13.326;2023-04-10T03:47:33;7.80;99.90
15749;DHT22;7976;52.526;13.326;2023-04-10T03:50:03;7.70;99.90
15749;DHT22;7976;52.526;13.326;2023-04-10T03:52:37;7.70;99.90
15749;DHT22;7976;52.526;13.326;2023-04-10T03:55:12;7.60;99.90
15749;DHT22;7976;52.526;13.326;2023-04-10T03:57:43;7.60;99.90
15749;DHT22;7976;52.526;13.326;2023-04-10T04:00:11;7.50;99.90
15749;DHT22;7976;52.526;13.326;2023-04-10T04:02:48;7.40;99.90
15749;DHT22;7976;52.526;13.326;2023-04-10T04:05:37;7.40;99.90
15749;DHT22;7976;52.526;13.326;2023-04-10T04:08:22;7.30;99.90
15749;DHT22;7976;52.526;13.326;2023-04-10T04:11:08;7.30;99.90
15749;DHT22;7976;52.526;13.326;2023-04-10T04:13:46;7.20;99.90
15749;DHT22;7976;52.526;13.326;2023-04-10T04:16:28;7.20;99.90
15749;DHT22;7976;52.526;13.326;2023-04-10T04:19:10;7.20;99.90
15749;DHT22;7976;52.526;13.326;2023-04-10T04:21:42;7.20;99.90
15749;DHT22;7976;52.526;13.326;2023-04-10T04:24:19;7.20;99.90
15749;DHT22;7976;52.526;13.326;2023-04-10T04:27:04;7.20;99.90
15749;DHT22;7976;52.526;13.326;2023-04-10T04:29:45;7.20;99.90
15749;DHT22;7976;52.526;13.326;2023-04-10T04:32:21;7.20;99.90
15749;DHT22;7976;52.526;13.326;2023-04-10T04:35:10;7.30;99.90
15749;DHT22;7976;52.526;13.326;2023-04-10T04:37:55;7.30;99.90
15749;DHT22;7976;52.526;13.326;2023-04-10T04:40:42;7.40;99.90
15749;DHT22;7976;52.526;13.326;2023-04-10T04:43:20;7.40;99.90
15749;DHT22;7976;52.526;13.326;2023-04-10T04:45:57;7.50;99.90
15749;DHT22;7976;52.526;13.326;2023-04-10T04:48:37;7.50;99.90
15749;DHT22;7976;52.526;13.326;2023-04-10T04:51:22;7.60;99.90
15749;DHT22;7976;52.526;13.326;2023-04-10T04:54:05;7.70;99.90
15749;DHT22;7976;52.526;13.326;2023-04-10T04:56:49;7.70;99.90
15749;DHT22;7976;52.526;13.326;2023-04-10T04:59:30;7.70;99.90
15749;DHT22;7976;52.526;13.326;2023-04-10T05:02:23;7.70;99.90
15749;DHT22;7976;52.526;13.326;2023-04-10T05:05:28;7.70;99.90
15749;DHT22;7976;52.526;13.326;2023-04-10T05:08:17;7.80;99.90
15749;DHT22;7976;52.526;13.326;2023-04-10T05:11:22;7.80;99.90
15749;DHT22;7976;52.526;13.326;2023-04-10T05:14:12;7.80;99.90
15749;DHT22;7976;52.526;13.326;2023-04-10T05:17:00;7.80;99.90
15749;DHT22;7976;52.526;13.326;2023-04-10T05:19:42;7.90;99.90
15749;DHT22;7976;52.526;13.326;2023-04-10T05:22:30;7.90;99.90
15749;DHT22;7976;52.526;13.326;2023-04-10T05:25:21;8.00;99.90
15749;DHT22;7976;52.526;13.326;2023-04-10T05:28:00;8.10;99.90
15749;DHT22;7976;52.526;13.326;2023-04-10T05:30:45;8.10;99.90
15749;DHT22;7976;52.526;13.326;2023-04-10T05:33:33;8.10;99.90
15749;DHT22;7976;52.526;13.326;2023-04-10T05:36:23;8.10;99.90
15749;DHT22;7976;52.526;13.326;2023-04-10T05:39:00;8.20;99.90
15749;DHT22;7976;52.526;13.326;2023-04-10T05:41:45;8.30;99.90
15749;DHT22;7976;52.526;13.326;2023-04-10T05:44:24;8.40;99.90
15749;DHT22;7976;52.526;13.326;2023-04-10T05:47:04;8.40;99.90
15749;DHT22;7976;52.526;13.326;2023-04-10T05:49:50;8.50;99.90
15749;DHT22;7976;52.526;13.326;2023-04-10T05:52:29;8.50;99.90
15749;DHT22;7976;52.526;13.326;2023-04-10T05:55:12;8.50;99.90
15749;DHT22;7976;52.526;13.326;2023-04-10T05:57:41;8.60;99.90
15749;DHT22;7976;52.526;13.326;2023-04-10T06:00:23;8.70;99.90
15749;DHT22;7976;52.526;13.326;2023-04-10T06:03:28;8.70;99.90
15749;DHT22;7976;52.526;13.326;2023-04-10T06:06:00;8.80;99.90
15749;DHT22;7976;52.526;13.326;2023-04-10T06:08:29;8.90;99.90
15749;DHT22;7976;52.526;13.326;2023-04-10T06:10:55;9.10;99.90
15749;DHT22;7976;52.526;13.326;2023-04-10T06:13:22;9.20;99.90
15749;DHT22;7976;52.526;13.326;2023-04-10T06:15:53;9.20;99.90
15749;DHT22;7976;52.526;13.326;2023-04-10T06:18:19;9.20;99.90
15749;DHT22;7976;52.526;13.326;2023-04-10T06:20:47;9.30;99.90
15749;DHT22;7976;52.526;13.326;2023-04-10T06:23:15;9.40;99.90
15749;DHT22;7976;52.526;13.326;2023-04-10T06:25:42;9.40;99.90
15749;DHT22;7976;52.526;13.326;2023-04-10T06:28:09;9.40;99.90
15749;DHT22;7976;52.526;13.326;2023-04-10T06:30:36;9.50;99.90
15749;DHT22;7976;52.526;13.326;2023-04-10T06:33:05;9.40;99.90
15749;DHT22;7976;52.526;13.326;2023-04-10T06:35:34;9.40;99.90
15749;DHT22;7976;52.526;13.326;2023-04-10T06:38:02;9.40;99.90
15749;DHT22;7976;52.526;13.326;2023-04-10T06:40:33;9.50;99.90
15749;DHT22;7976;52.526;13.326;2023-04-10T06:43:00;9.60;99.90
15749;DHT22;7976;52.526;13.326;2023-04-10T06:45:33;9.60;99.90
15749;DHT22;7976;52.526;13.326;2023-04-10T06:48:00;9.60;99.90
15749;DHT22;7976;52.526;13.326;2023-04-10T06:50:27;9.60;99.90
15749;DHT22;7976;52.526;13.326;2023-04-10T06:52:54;9.70;99.90
15749;DHT22;7976;52.526;13.326;2023-04-10T06:55:24;9.80;99.90
15749;DHT22;7976;52.526;13.326;2023-04-10T06:57:52;9.80;99.90
15749;DHT22;7976;52.526;13.326;2023-04-10T07:00:21;9.90;99.90
15749;DHT22;7976;52.526;13.326;2023-04-10T07:02:48;9.90;99.90
15749;DHT22;7976;52.526;13.326;2023-04-10T07:05:16;9.90;99.90
15749;DHT22;7976;52.526;13.326;2023-04-10T07:07:43;10.00;99.90
15749;DHT22;7976;52.526;13.326;2023-04-10T07:10:11;9.90;99.90
15749;DHT22;7976;52.526;13.326;2023-04-10T07:12:38;10.00;99.90
15749;DHT22;7976;52.526;13.326;2023-04-10T07:15:07;10.10;99.90
15749;DHT22;7976;52.526;13.326;2023-04-10T07:17:37;10.10;99.90
15749;DHT22;7976;52.526;13.326;2023-04-10T07:20:05;10.20;99.90
15749;DHT22;7976;52.526;13.326;2023-04-10T07:22:33;10.20;99.90
15749;DHT22;7976;52.526;13.326;2023-04-10T07:24:59;10.30;99.90
15749;DHT22;7976;52.526;13.326;2023-04-10T07:27:27;10.30;99.90
15749;DHT22;7976;52.526;13.326;2023-04-10T07:29:54;10.30;99.90
15749;DHT22;7976;52.526;13.326;2023-04-10T07:32:23;10.40;99.90
15749;DHT22;7976;52.526;13.326;2023-04-10T07:34:50;10.40;99.90
15749;DHT22;7976;52.526;13.326;2023-04-10T07:37:17;10.50;99.90
15749;DHT22;7976;52.526;13.326;2023-04-10T07:39:43;10.60;99.90
15749;DHT22;7976;52.526;13.326;2023-04-10T07:42:10;10.70;99.90
15749;DHT22;7976;52.526;13.326;2023-04-10T07:44:37;10.80;99.90
15749;DHT22;7976;52.526;13.326;2023-04-10T07:47:04;10.90;99.90
15749;DHT22;7976;52.526;13.326;2023-04-10T07:49:32;11.00;99.90
15749;DHT22;7976;52.526;13.326;2023-04-10T07:51:59;11.10;99.90
15749;DHT22;7976;52.526;13.326;2023-04-10T07:54:26;11.20;99.90
15749;DHT22;7976;52.526;13.326;2023-04-10T07:56:52;11.20;99.90
15749;DHT22;7976;52.526;13.326;2023-04-10T07:59:19;11.30;99.90
15749;DHT22;7976;52.526;13.326;2023-04-10T08:01:46;11.40;99.90
15749;DHT22;7976;52.526;13.326;2023-04-10T08:04:13;11.40;99.90
15749;DHT22;7976;52.526;13.326;2023-04-10T08:06:41;11.50;99.90
15749;DHT22;7976;52.526;13.326;2023-04-10T08:09:08;11.60;99.90
15749;DHT22;7976;52.526;13.326;2023-04-10T08:11:36;11.70;99.90
15749;DHT22;7976;52.526;13.326;2023-04-10T08:14:03;11.80;99.90
15749;DHT22;7976;52.526;13.326;2023-04-10T08:16:33;11.90;99.90
15749;DHT22;7976;52.526;13.326;2023-04-10T08:19:01;12.00;99.90
15749;DHT22;7976;52.526;13.326;2023-04-10T08:21:29;12.20;99.90
15749;DHT22;7976;52.526;13.326;2023-04-10T08:24:00;12.30;99.90
15749;DHT22;7976;52.526;13.326;2023-04-10T08:26:28;12.50;99.90
15749;DHT22;7976;52.526;13.326;2023-04-10T08:28:56;12.60;99.90
15749;DHT22;7976;52.526;13.326;2023-04-10T08:31:24;12.60;99.90
15749;DHT22;7976;52.526;13.326;2023-04-10T08:33:52;12.70;99.90
15749;DHT22;7976;52.526;13.326;2023-04-10T08:36:20;12.80;99.90
15749;DHT22;7976;52.526;13.326;2023-04-10T08:38:47;12.90;99.90
15749;DHT22;7976;52.526;13.326;2023-04-10T08:41:17;13.00;99.90
15749;DHT22;7976;52.526;13.326;2023-04-10T08:43:45;13.10;99.90
15749;DHT22;7976;52.526;13.326;2023-04-10T08:46:14;13.10;99.90
15749;DHT22;7976;52.526;13.326;2023-04-10T08:48:46;13.20;99.90
15749;DHT22;7976;52.526;13.326;2023-04-10T08:51:22;13.30;99.90
15749;DHT22;7976;52.526;13.326;2023-04-10T08:53:56;13.40;99.90
15749;DHT22;7976;52.526;13.326;2023-04-10T08:56:31;13.50;99.90
15749;DHT22;7976;52.526;13.326;2023-04-10T08:59:01;13.60;99.90
15749;DHT22;7976;52.526;13.326;2023-04-10T09:01:28;13.60;99.90
15749;DHT22;7976;52.526;13.326;2023-04-10T09:03:56;13.70;99.90
15749;DHT22;7976;52.526;13.326;2023-04-10T09:06:23;13.70;99.90
15749;DHT22;7976;52.526;13.326;2023-04-10T09:08:50;13.70;99.90
15749;DHT22;7976;52.526;13.326;2023-04-10T09:11:17;13.70;99.90
15749;DHT22;7976;52.526;13.326;2023-04-10T09:13:45;13.70;99.90
15749;DHT22;7976;52.526;13.326;2023-04-10T09:16:12;13.80;99.90
15749;DHT22;7976;52.526;13.326;2023-04-10T09:18:41;13.90;99.90
15749;DHT22;7976;52.526;13.326;2023-04-10T09:21:12;14.00;99.90
15749;DHT22;7976;52.526;13.326;2023-04-10T09:23:41;14.10;99.90
15749;DHT22;7976;52.526;13.326;2023-04-10T09:26:22;14.10;99.90
15749;DHT22;7976;52.526;13.326;2023-04-10T09:28:59;14.10;99.90
15749;DHT22;7976;52.526;13.326;2023-04-10T09:31:29;14.20;99.90
15749;DHT22;7976;52.526;13.326;2023-04-10T09:34:09;14.20;99.90
15749;DHT22;7976;52.526;13.326;2023-04-10T09:36:38;14.40;99.90
15749;DHT22;7976;52.526;13.326;2023-04-10T09:39:07;14.50;99.90
15749;DHT22;7976;52.526;13.326;2023-04-10T09:41:46;14.50;99.90
15749;DHT22;7976;52.526;13.326;2023-04-10T09:44:18;14.50;99.90
15749;DHT22;7976;52.526;13.326;2023-04-10T09:46:54;14.50;99.90
15749;DHT22;7976;52.526;13.326;2023-04-10T09:49:21;14.60;99.90
15749;DHT22;7976;52.526;13.326;2023-04-10T09:51:48;14.70;99.90
15749;DHT22;7976;52.526;13.326;2023-04-10T09:54:15;14.80;99.90
15749;DHT22;7976;52.526;13.326;2023-04-10T09:56:44;14.90;99.90
15749;DHT22;7976;52.526;13.326;2023-04-10T09:59:13;15.00;99.90
15749;DHT22;7976;52.526;13.326;2023-04-10T10:01:43;15.00;99.90
15749;DHT22;7976;52.526;13.326;2023-04-10T10:04:13;15.00;99.90
15749;DHT22;7976;52.526;13.326;2023-04-10T10:06:42;15.10;99.90
15749;DHT22;7976;52.526;13.326;2023-04-10T10:09:09;15.10;99.90
15749;DHT22;7976;52.526;13.326;2023-04-10T10:11:36;15.20;99.90
15749;DHT22;7976;52.526;13.326;2023-04-10T10:14:08;15.30;99.90
15749;DHT22;7976;52.526;13.326;2023-04-10T10:16:46;15.40;99.90
15749;DHT22;7976;52.526;13.326;2023-04-10T10:19:18;15.40;99.90
15749;DHT22;7976;52.526;13.326;2023-04-10T10:21:52;15.50;99.90
15749;DHT22;7976;52.526;13.326;2023-04-10T10:24:22;15.60;99.90
15749;DHT22;7976;52.526;13.326;2023-04-10T10:26:53;15.60;99.90
15749;DHT22;7976;52.526;13.326;2023-04-10T10:29:22;15.70;99.90
15749;DHT22;7976;52.526;13.326;2023-04-10T10:31:52;15.70;99.90
15749;DHT22;7976;52.526;13.326;2023-04-10T10:34:21;15.80;99.90
15749;DHT22;7976;52.526;13.326;2023-04-10T10:36:47;15.80;99.90
15749;DHT22;7976;52.526;13.326;2023-04-10T10:39:23;15.80;99.90
15749;DHT22;7976;52.526;13.326;2023-04-10T10:42:04;15.90;99.90
15749;DHT22;7976;52.526;13.326;2023-04-10T10:44:41;15.90;99.90
15749;DHT22;7976;52.526;13.326;2023-04-10T10:47:17;15.90;99.90
15749;DHT22;7976;52.526;13.326;2023-04-10T10:49:56;15.90;99.90
15749;DHT22;7976;52.526;13.326;2023-04-10T10:52:40;15.90;99.90
15749;DHT22;7976;52.526;13.326;2023-04-10T10:55:30;15.90;99.90
15749;DHT22;7976;52.526;13.326;2023-04-10T10:58:00;16.10;99.90
15749;DHT22;7976;52.526;13.326;2023-04-10T11:01:04;16.10;99.90
15749;DHT22;7976;52.526;13.326;2023-04-10T11:03:34;16.10;99.90
15749;DHT22;7976;52.526;13.326;2023-04-10T11:06:03;16.10;99.90
15749;DHT22;7976;52.526;13.326;2023-04-10T11:08:43;16.10;99.90
15749;DHT22;7976;52.526;13.326;2023-04-10T11:11:13;16.20;99.90
15749;DHT22;7976;52.526;13.326;2023-04-10T11:14:11;16.20;99.90
15749;DHT22;7976;52.526;13.326;2023-04-10T11:16:44;16.20;99.90
15749;DHT22;7976;52.526;13.326;2023-04-10T11:19:14;16.20;99.90
15749;DHT22;7976;52.526;13.326;2023-04-10T11:22:01;16.30;99.90
15749;DHT22;7976;52.526;13.326;2023-04-10T11:24:53;16.40;99.90
15749;DHT22;7976;52.526;13.326;2023-04-10T11:27:41;16.40;99.90
15749;DHT22;7976;52.526;13.326;2023-04-10T11:30:33;16.50;99.90
15749;DHT22;7976;52.526;13.326;2023-04-10T11:33:02;16.60;99.90
15749;DHT22;7976;52.526;13.326;2023-04-10T11:35:32;16.60;99.90
15749;DHT22;7976;52.526;13.326;2023-04-10T11:41:01;16.70;99.90
15749;DHT22;7976;52.526;13.326;2023-04-10T11:43:32;16.80;99.90
15749;DHT22;7976;52.526;13.326;2023-04-10T11:46:00;16.80;99.90
15749;DHT22;7976;52.526;13.326;2023-04-10T11:48:29;16.90;99.90
15749;DHT22;7976;52.526;13.326;2023-04-10T11:50:58;16.90;99.90
15749;DHT22;7976;52.526;13.326;2023-04-10T11:53:33;16.90;99.90
15749;DHT22;7976;52.526;13.326;2023-04-10T11:56:03;17.00;99.90
15749;DHT22;7976;52.526;13.326;2023-04-10T11:58:32;16.90;99.90
15749;DHT22;7976;52.526;13.326;2023-04-10T12:01:00;16.80;99.90
15749;DHT22;7976;52.526;13.326;2023-04-10T12:03:33;16.80;99.90
15749;DHT22;7976;52.526;13.326;2023-04-10T12:06:03;16.80;99.90
15749;DHT22;7976;52.526;13.326;2023-04-10T12:08:33;16.80;99.90
15749;DHT22;7976;52.526;13.326;2023-04-10T12:11:01;16.80;99.90
15749;DHT22;7976;52.526;13.326;2023-04-10T12:13:29;16.80;99.90
15749;DHT22;7976;52.526;13.326;2023-04-10T12:16:01;16.80;99.90
15749;DHT22;7976;52.526;13.326;2023-04-10T12:18:30;16.70;99.90
15749;DHT22;7976;52.526;13.326;2023-04-10T12:20:58;16.60;99.90
15749;DHT22;7976;52.526;13.326;2023-04-10T12:23:28;16.70;99.90
15749;DHT22;7976;52.526;13.326;2023-04-10T12:26:07;16.80;99.90
15749;DHT22;7976;52.526;13.326;2023-04-10T12:28:39;16.90;99.90
15749;DHT22;7976;52.526;13.326;2023-04-10T12:31:08;16.90;99.90
15749;DHT22;7976;52.526;13.326;2023-04-10T12:33:36;17.00;99.90
15749;DHT22;7976;52.526;13.326;2023-04-10T12:36:19;17.00;99.90
15749;DHT22;7976;52.526;13.326;2023-04-10T12:38:50;17.10;99.90
15749;DHT22;7976;52.526;13.326;2023-04-10T12:41:22;17.00;99.90
15749;DHT22;7976;52.526;13.326;2023-04-10T12:43:52;17.00;99.90
15749;DHT22;7976;52.526;13.326;2023-04-10T12:46:33;17.00;99.90
15749;DHT22;7976;52.526;13.326;2023-04-10T12:49:09;17.00;99.90
15749;DHT22;7976;52.526;13.326;2023-04-10T12:51:41;17.00;99.90
15749;DHT22;7976;52.526;13.326;2023-04-10T12:54:26;17.00;99.90
15749;DHT22;7976;52.526;13.326;2023-04-10T12:56:54;16.90;99.90
15749;DHT22;7976;52.526;13.326;2023-04-10T12:59:22;17.00;99.90
15749;DHT22;7976;52.526;13.326;2023-04-10T13:01:49;17.00;99.90
15749;DHT22;7976;52.526;13.326;2023-04-10T13:04:16;17.00;99.90
15749;DHT22;7976;52.526;13.326;2023-04-10T13:06:43;17.00;99.90
15749;DHT22;7976;52.526;13.326;2023-04-10T13:09:13;17.00;99.90
15749;DHT22;7976;52.526;13.326;2023-04-10T13:11:42;17.00;99.90
15749;DHT22;7976;52.526;13.326;2023-04-10T13:14:09;17.00;99.90
15749;DHT22;7976;52.526;13.326;2023-04-10T13:16:37;17.10;99.90
15749;DHT22;7976;52.526;13.326;2023-04-10T13:19:04;17.10;99.90
15749;DHT22;7976;52.526;13.326;2023-04-10T13:21:30;17.10;99.90
15749;DHT22;7976;52.526;13.326;2023-04-10T13:23:57;17.00;99.90
15749;DHT22;7976;52.526;13.326;2023-04-10T13:26:25;17.00;99.90
15749;DHT22;7976;52.526;13.326;2023-04-10T13:28:52;17.00;99.90
15749;DHT22;7976;52.526;13.326;2023-04-10T13:31:19;17.00;99.90
15749;DHT22;7976;52.526;13.326;2023-04-10T13:33:46;17.00;99.90
15749;DHT22;7976;52.526;13.326;2023-04-10T13:36:14;17.10;99.90
15749;DHT22;7976;52.526;13.326;2023-04-10T13:38:41;17.10;99.90
15749;DHT22;7976;52.526;13.326;2023-04-10T13:41:08;17.10;99.90
15749;DHT22;7976;52.526;13.326;2023-04-10T13:43:36;17.10;99.90
15749;DHT22;7976;52.526;13.326;2023-04-10T13:46:04;17.10;99.90
15749;DHT22;7976;52.526;13.326;2023-04-10T13:48:31;17.20;99.90
15749;DHT22;7976;52.526;13.326;2023-04-10T13:50:57;17.20;99.90
15749;DHT22;7976;52.526;13.326;2023-04-10T13:53:24;17.20;99.90
15749;DHT22;7976;52.526;13.326;2023-04-10T13:55:51;17.20;99.90
15749;DHT22;7976;52.526;13.326;2023-04-10T13:58:18;17.20;99.90
15749;DHT22;7976;52.526;13.326;2023-04-10T14:00:47;17.20;99.90
15749;DHT22;7976;52.526;13.326;2023-04-10T14:03:14;17.20;99.90
15749;DHT22;7976;52.526;13.326;2023-04-10T14:05:41;17.20;99.90
15749;DHT22;7976;52.526;13.326;2023-04-10T14:08:09;17.30;99.90
15749;DHT22;7976;52.526;13.326;2023-04-10T14:10:39;17.30;99.90
15749;DHT22;7976;52.526;13.326;2023-04-10T14:13:06;17.30;99.90
15749;DHT22;7976;52.526;13.326;2023-04-10T14:15:33;17.30;99.90
15749;DHT22;7976;52.526;13.326;2023-04-10T14:18:02;17.20;99.90
15749;DHT22;7976;52.526;13.326;2023-04-10T14:20:28;17.20;99.90
15749;DHT22;7976;52.526;13.326;2023-04-10T14:22:55;17.20;99.90
15749;DHT22;7976;52.526;13.326;2023-04-10T14:25:22;17.20;99.90
15749;DHT22;7976;52.526;13.326;2023-04-10T14:27:49;17.20;99.90
15749;DHT22;7976;52.526;13.326;2023-04-10T14:30:16;17.10;99.90
15749;DHT22;7976;52.526;13.326;2023-04-10T14:32:42;17.10;99.90
15749;DHT22;7976;52.526;13.326;2023-04-10T14:35:11;17.10;99.90
15749;DHT22;7976;52.526;13.326;2023-04-10T14:37:38;17.10;99.90
15749;DHT22;7976;52.526;13.326;2023-04-10T14:40:06;17.00;99.90
15749;DHT22;7976;52.526;13.326;2023-04-10T14:42:34;16.90;99.90
15749;DHT22;7976;52.526;13.326;2023-04-10T14:45:00;16.90;99.90
15749;DHT22;7976;52.526;13.326;2023-04-10T14:47:27;16.80;99.90
15749;DHT22;7976;52.526;13.326;2023-04-10T14:49:54;16.80;99.90
15749;DHT22;7976;52.526;13.326;2023-04-10T14:52:22;16.80;99.90
15749;DHT22;7976;52.526;13.326;2023-04-10T14:54:49;16.90;99.90
15749;DHT22;7976;52.526;13.326;2023-04-10T14:57:16;16.90;99.90
15749;DHT22;7976;52.526;13.326;2023-04-10T14:59:43;16.90;99.90
15749;DHT22;7976;52.526;13.326;2023-04-10T15:02:10;16.80;99.90
15749;DHT22;7976;52.526;13.326;2023-04-10T15:04:36;16.70;99.90
15749;DHT22;7976;52.526;13.326;2023-04-10T15:07:03;16.70;99.90
15749;DHT22;7976;52.526;13.326;2023-04-10T15:09:31;16.70;99.90
15749;DHT22;7976;52.526;13.326;2023-04-10T15:11:58;16.80;99.90
15749;DHT22;7976;52.526;13.326;2023-04-10T15:14:26;16.80;99.90
15749;DHT22;7976;52.526;13.326;2023-04-10T15:16:52;16.80;99.90
15749;DHT22;7976;52.526;13.326;2023-04-10T15:19:19;16.80;99.90
15749;DHT22;7976;52.526;13.326;2023-04-10T15:21:46;16.90;99.90
15749;DHT22;7976;52.526;13.326;2023-04-10T15:24:13;16.90;99.90
15749;DHT22;7976;52.526;13.326;2023-04-10T15:26:44;16.90;99.90
15749;DHT22;7976;52.526;13.326;2023-04-10T15:29:11;16.80;99.90
15749;DHT22;7976;52.526;13.326;2023-04-10T15:31:38;16.80;99.90
15749;DHT22;7976;52.526;13.326;2023-04-10T15:34:08;16.80;99.90
15749;DHT22;7976;52.526;13.326;2023-04-10T15:36:35;16.80;99.90
15749;DHT22;7976;52.526;13.326;2023-04-10T15:39:02;16.70;99.90
15749;DHT22;7976;52.526;13.326;2023-04-10T15:41:29;16.70;99.90
15749;DHT22;7976;52.526;13.326;2023-04-10T15:43:58;16.70;99.90
15749;DHT22;7976;52.526;13.326;2023-04-10T15:46:25;16.70;99.90
15749;DHT22;7976;52.526;13.326;2023-04-10T15:48:53;16.80;99.90
15749;DHT22;7976;52.526;13.326;2023-04-10T15:51:20;16.80;99.90
15749;DHT22;7976;52.526;13.326;2023-04-10T15:53:47;16.90;99.90
15749;DHT22;7976;52.526;13.326;2023-04-10T15:56:13;16.90;99.90
15749;DHT22;7976;52.526;13.326;2023-04-10T15:58:41;16.80;99.90
15749;DHT22;7976;52.526;13.326;2023-04-10T16:01:09;16.80;99.90
15749;DHT22;7976;52.526;13.326;2023-04-10T16:03:36;16.80;99.90
15749;DHT22;7976;52.526;13.326;2023-04-10T16:06:03;16.70;99.90
15749;DHT22;7976;52.526;13.326;2023-04-10T16:08:30;16.70;99.90